Time;durP1;ratioP1;P1;durP2;ratioP2;P2;SDS_P1;SDS_P2;PMS_P1;PMS_P2;Temp;Humidity;BMP_temperature;BMP_pressure;BME280_temperature;BME280_humidity;BME280_pressure;Samples;Min_cycle;Max_cycle;Signal;HPM_P1;HPM_P2
2023/03/13 00:01:17;;;;;;;13.10;8.25;;;;;;;7.03;41.63;99315.53;4280313;33;33066;-91
2023/03/13 00:03:45;;;;;;;13.27;8.25;;;;;;;7.04;41.57;99317.28;4290475;33;33632;-91
2023/03/13 00:06:13;;;;;;;14.77;9.38;;;;;;;6.89;43.11;99314.25;4278151;33;33723;-93
2023/03/13 00:08:41;;;;;;;14.32;8.52;;;;;;;6.85;43.06;99320.13;4283297;33;32350;-91
2023/03/13 00:11:11;;;;;;;12.98;7.60;;;;;;;6.88;42.89;99307.34;4284179;33;34181;-91
2023/03/13 00:13:38;;;;;;;13.40;8.32;;;;;;;6.97;42.65;99313.66;4285109;33;31808;-92
2023/03/13 00:16:07;;;;;;;14.90;8.30;;;;;;;6.52;44.34;99319.19;4299161;33;34886;-90
2023/03/13 00:18:35;;;;;;;13.07;8.10;;;;;;;6.71;45.04;99318.03;4280690;33;33849;-92
2023/03/13 00:21:07;;;;;;;13.18;8.10;;;;;;;6.81;44.52;99311.44;4285941;33;33380;-94
2023/03/13 00:23:37;;;;;;;14.35;9.10;;;;;;;6.69;45.40;99304.22;4277649;33;32537;-96
2023/03/13 00:26:06;;;;;;;15.85;8.85;;;;;;;6.52;46.30;99311.44;4276589;33;34533;-90
2023/03/13 00:28:36;;;;;;;13.07;8.40;;;;;;;6.95;45.90;99322.19;4271349;33;33142;-90
2023/03/13 00:31:04;;;;;;;13.02;8.77;;;;;;;6.82;45.52;99313.22;4279929;33;33632;-94
2023/03/13 00:33:36;;;;;;;13.18;8.07;;;;;;;6.95;45.29;99304.12;4290306;33;35266;-96
2023/03/13 00:36:06;;;;;;;13.65;8.43;;;;;;;7.05;44.27;99301.88;4283833;33;33801;-91
2023/03/13 00:38:34;;;;;;;13.45;9.32;;;;;;;6.92;44.64;99304.91;4276556;33;36160;-92
2023/03/13 00:41:03;;;;;;;13.60;9.02;;;;;;;6.87;44.79;99306.47;4267705;33;34008;-91
2023/03/13 00:43:32;;;;;;;14.63;8.88;;;;;;;6.80;45.48;99295.13;4266573;33;33782;-91
2023/03/13 00:46:00;;;;;;;14.13;8.77;;;;;;;6.39;46.44;99306.72;4258695;33;33987;-90
2023/03/13 00:48:27;;;;;;;14.85;8.45;;;;;;;7.02;45.36;99295.75;4261428;33;33831;-95
2023/03/13 00:50:55;;;;;;;13.07;8.57;;;;;;;6.75;45.76;99296.69;4268740;33;33555;-91
2023/03/13 00:53:23;;;;;;;15.00;9.02;;;;;;;6.68;45.95;99294.75;4260209;33;33794;-96
2023/03/13 00:55:51;;;;;;;14.52;8.60;;;;;;;7.12;45.09;99277.13;4259334;33;33585;-92
2023/03/13 00:58:20;;;;;;;13.73;8.77;;;;;;;7.01;44.80;99283.69;4265496;33;33551;-96
2023/03/13 01:00:48;;;;;;;13.45;8.38;;;;;;;6.92;45.24;99278.25;4268955;33;33704;-90
2023/03/13 01:03:15;;;;;;;13.43;8.15;;;;;;;6.88;45.39;99281.59;4264761;33;33807;-91
2023/03/13 01:05:43;;;;;;;12.75;8.18;;;;;;;7.01;45.08;99276.84;4259583;33;34626;-93
2023/03/13 01:08:10;;;;;;;12.65;8.25;;;;;;;7.12;44.74;99274.53;4269341;33;34193;-90
2023/03/13 01:10:38;;;;;;;13.70;8.30;;;;;;;7.22;44.71;99267.94;4268360;33;33665;-95
2023/03/13 01:13:06;;;;;;;14.95;8.52;;;;;;;7.05;44.93;99255.47;4271789;33;33629;-90
2023/03/13 01:15:34;;;;;;;15.00;8.27;;;;;;;6.98;45.51;99257.84;4259947;33;33896;-94
2023/03/13 01:18:02;;;;;;;14.35;8.18;;;;;;;7.00;45.36;99262.19;4263118;33;32401;-95
2023/03/13 01:20:32;;;;;;;15.32;8.05;;;;;;;7.06;45.86;99258.91;4256231;33;33419;-96
2023/03/13 01:22:59;;;;;;;13.95;7.95;;;;;;;7.10;45.46;99253.00;4266404;33;33688;-92
2023/03/13 01:25:26;;;;;;;11.88;7.57;;;;;;;6.91;45.49;99255.91;4259176;33;33962;-93
2023/03/13 01:27:54;;;;;;;11.60;7.72;;;;;;;7.06;45.19;99251.19;4258062;33;33789;-92
2023/03/13 01:30:22;;;;;;;12.52;8.27;;;;;;;6.97;45.14;99245.75;4257890;33;33456;-94
2023/03/13 01:32:49;;;;;;;13.13;8.07;;;;;;;7.19;45.53;99253.25;4269070;33;32977;-94
2023/03/13 01:35:18;;;;;;;11.57;7.47;;;;;;;7.14;45.45;99254.84;4268151;33;33444;-92
2023/03/13 01:37:46;;;;;;;14.43;7.70;;;;;;;7.24;45.00;99249.13;4283889;33;33966;-91
2023/03/13 01:40:13;;;;;;;11.95;7.60;;;;;;;7.20;44.90;99251.56;4277483;33;32613;-95
2023/03/13 01:42:52;;;;;;;12.73;7.22;;;;;;;7.23;45.09;99236.16;4276256;33;33493;-96
2023/03/13 01:45:54;;;;;;;11.48;7.70;;;;;;;7.09;45.01;99240.97;4278915;33;33681;-96
2023/03/13 01:48:27;;;;;;;12.93;7.82;;;;;;;7.08;45.22;99234.03;4277764;33;32832;-91
2023/03/13 01:50:56;;;;;;;13.98;8.15;;;;;;;7.16;44.80;99234.25;4275447;33;32417;-95
2023/03/13 01:53:24;;;;;;;13.88;8.23;;;;;;;6.83;45.72;99232.50;4267718;33;33448;-90
2023/03/13 01:55:53;;;;;;;16.92;8.13;;;;;;;6.89;45.74;99230.06;4287042;33;34124;-91
2023/03/13 01:58:21;;;;;;;13.73;7.60;;;;;;;6.90;45.36;99238.72;4287547;33;33922;-92
2023/03/13 02:00:49;;;;;;;12.35;7.45;;;;;;;6.94;45.46;99240.53;4270437;33;32148;-91
2023/03/13 02:03:19;;;;;;;13.60;7.50;;;;;;;7.00;45.34;99236.41;4290153;33;33923;-92
2023/03/13 02:05:48;;;;;;;11.23;7.60;;;;;;;6.93;46.75;99234.50;4283038;33;34639;-90
2023/03/13 02:08:28;;;;;;;13.85;7.60;;;;;;;7.17;45.36;99230.87;4280075;33;34019;-90
2023/03/13 02:11:07;;;;;;;12.23;7.57;;;;;;;7.11;45.54;99230.69;4287945;33;34006;-91
2023/03/13 02:13:34;;;;;;;12.40;7.22;;;;;;;7.09;45.75;99230.66;4278208;33;32413;-91
2023/03/13 02:16:03;;;;;;;12.48;7.28;;;;;;;7.35;45.27;99227.88;4298745;33;33848;-93
2023/03/13 02:18:30;;;;;;;11.32;6.47;;;;;;;7.33;46.05;99227.84;4280644;33;33634;-91
2023/03/13 02:21:09;;;;;;;10.10;7.18;;;;;;;7.55;45.89;99226.72;4286330;33;34374;-90
2023/03/13 02:23:47;;;;;;;13.88;7.55;;;;;;;7.01;46.10;99234.72;4274629;33;33072;-90
2023/03/13 02:26:15;;;;;;;13.50;7.15;;;;;;;7.55;45.03;99221.56;4284220;33;32601;-92
2023/03/13 02:28:42;;;;;;;13.82;7.80;;;;;;;7.45;44.90;99224.72;4293903;33;32798;-92
2023/03/13 02:31:11;;;;;;;12.30;6.82;;;;;;;7.35;46.07;99222.72;4292558;33;32770;-91
2023/03/13 02:33:40;;;;;;;11.57;7.07;;;;;;;7.57;46.14;99235.34;4287867;33;33640;-91
2023/03/13 02:36:10;;;;;;;11.30;7.82;;;;;;;7.64;45.92;99226.06;4293913;33;33630;-92
2023/03/13 02:38:44;;;;;;;10.93;7.35;;;;;;;7.54;46.49;99237.88;4293166;33;32524;-89
2023/03/13 02:41:12;;;;;;;11.52;6.70;;;;;;;7.69;46.16;99240.84;4286774;33;33519;-89
2023/03/13 02:43:40;;;;;;;13.48;7.53;;;;;;;7.72;46.71;99240.03;4274594;33;33957;-93
2023/03/13 02:46:10;;;;;;;9.68;6.55;;;;;;;7.67;46.59;99231.31;4272813;33;34505;-90
2023/03/13 02:48:44;;;;;;;13.50;7.20;;;;;;;7.80;46.58;99225.59;4274437;33;33594;-92
2023/03/13 02:51:32;;;;;;;10.85;7.32;;;;;;;8.00;46.32;99231.28;4273436;33;33497;-90
2023/03/13 02:54:05;;;;;;;11.38;6.95;;;;;;;7.61;47.02;99237.16;4276238;33;33852;-89
2023/03/13 02:56:35;;;;;;;10.48;7.05;;;;;;;7.69;46.85;99240.84;4273151;33;33992;-89
2023/03/13 02:59:03;;;;;;;11.05;6.60;;;;;;;7.60;46.84;99240.59;4273536;33;33381;-90
2023/03/13 03:01:31;;;;;;;12.27;6.70;;;;;;;7.54;46.73;99243.03;4283406;33;33450;-89
2023/03/13 03:03:59;;;;;;;11.38;6.68;;;;;;;7.56;46.40;99247.37;4280464;33;32655;-90
2023/03/13 03:06:27;;;;;;;11.23;7.20;;;;;;;7.50;47.03;99249.81;4278381;33;33891;-89
2023/03/13 03:08:54;;;;;;;14.25;7.72;;;;;;;7.48;46.95;99256.63;4275554;33;34046;-91
2023/03/13 03:11:22;;;;;;;14.25;7.37;;;;;;;7.20;47.42;99254.16;4284435;33;33154;-89
2023/03/13 03:13:50;;;;;;;13.00;8.02;;;;;;;7.37;46.32;99254.59;4286697;33;32580;-89
2023/03/13 03:16:19;;;;;;;15.82;8.07;;;;;;;7.34;46.36;99255.38;4283459;33;33611;-93
2023/03/13 03:18:48;;;;;;;12.60;7.20;;;;;;;7.35;46.31;99249.41;4281168;33;34211;-90
2023/03/13 03:21:16;;;;;;;14.13;8.07;;;;;;;7.18;47.48;99241.19;4276723;33;33514;-89
2023/03/13 03:23:44;;;;;;;12.75;8.75;;;;;;;7.34;46.55;99227.00;4283087;33;32853;-90
2023/03/13 03:26:12;;;;;;;12.05;8.35;;;;;;;6.72;47.58;99237.34;4282933;33;34687;-90
2023/03/13 03:28:39;;;;;;;12.88;8.40;;;;;;;6.83;47.67;99235.94;4287312;33;34491;-90
2023/03/13 03:31:09;;;;;;;13.57;8.75;;;;;;;6.76;48.67;99239.16;4288355;33;33109;-90
2023/03/13 03:33:37;;;;;;;13.27;8.85;;;;;;;6.94;47.45;99237.97;4259814;33;32805;-90
2023/03/13 03:36:08;;;;;;;16.35;8.82;;;;;;;6.77;48.37;99232.31;4253557;33;33519;-89
2023/03/13 03:38:38;;;;;;;14.45;7.78;;;;;;;6.92;48.36;99242.19;4285811;33;33640;-94
2023/03/13 03:41:07;;;;;;;15.65;8.77;;;;;;;7.06;47.71;99239.16;4284755;33;33906;-89
2023/03/13 03:43:35;;;;;;;15.80;9.43;;;;;;;7.11;47.59;99238.41;4278631;33;34703;-91
2023/03/13 03:46:03;;;;;;;11.95;8.15;;;;;;;6.70;48.43;99235.53;4261310;33;35378;-93
2023/03/13 03:48:32;;;;;;;13.55;8.48;;;;;;;6.79;48.32;99240.97;4269584;33;33146;-90
2023/03/13 03:51:00;;;;;;;12.63;8.10;;;;;;;6.86;48.10;99236.84;4279296;33;32823;-90
2023/03/13 03:53:28;;;;;;;13.10;7.90;;;;;;;6.78;48.13;99245.25;4272704;33;33978;-92
2023/03/13 03:55:55;;;;;;;11.75;7.82;;;;;;;6.73;48.51;99245.94;4277124;33;34763;-92
2023/03/13 03:58:23;;;;;;;14.85;8.02;;;;;;;6.62;48.59;99250.75;4266353;33;33193;-91
2023/03/13 04:00:53;;;;;;;13.52;7.85;;;;;;;6.53;48.93;99259.09;4269188;33;32788;-92
2023/03/13 04:03:20;;;;;;;12.00;7.43;;;;;;;6.72;48.65;99259.66;4273998;33;33431;-91
2023/03/13 04:05:48;;;;;;;13.38;7.82;;;;;;;6.65;48.96;99261.16;4268621;33;33457;-94
2023/03/13 04:08:16;;;;;;;12.93;7.50;;;;;;;6.61;48.96;99266.19;4273122;33;33105;-94
2023/03/13 04:10:44;;;;;;;11.02;7.72;;;;;;;6.24;50.07;99271.06;4274484;33;34120;-91
2023/03/13 04:13:11;;;;;;;12.05;7.82;;;;;;;6.41;49.95;99271.59;4275971;33;35042;-91
2023/03/13 04:15:39;;;;;;;13.13;7.37;;;;;;;6.82;48.95;99261.69;4284690;33;34843;-93
2023/03/13 04:18:08;;;;;;;11.20;7.28;;;;;;;6.61;49.46;99266.19;4280716;33;33088;-92
2023/03/13 04:20:36;;;;;;;11.55;7.68;;;;;;;6.31;49.79;99267.00;4271418;33;31753;-90
2023/03/13 04:23:04;;;;;;;13.38;8.57;;;;;;;6.64;49.58;99262.00;4291644;33;34446;-90
2023/03/13 04:25:31;;;;;;;9.90;7.18;;;;;;;6.59;49.49;99263.53;4279248;33;33679;-89
2023/03/13 04:27:59;;;;;;;11.50;7.65;;;;;;;6.16;50.38;99272.53;4284024;33;34019;-89
2023/03/13 04:30:27;;;;;;;10.73;7.05;;;;;;;6.60;49.83;99277.31;4284969;33;33056;-89
2023/03/13 04:32:55;;;;;;;10.43;7.85;;;;;;;6.48;50.49;99281.28;4290978;33;33461;-94
2023/03/13 04:35:23;;;;;;;11.20;7.15;;;;;;;6.53;50.29;99279.69;4287318;33;34821;-89
2023/03/13 04:37:51;;;;;;;14.95;7.78;;;;;;;6.86;49.54;99289.28;4293881;33;34195;-93
2023/03/13 04:40:20;;;;;;;10.60;7.03;;;;;;;6.88;49.42;99289.31;4276803;33;33074;-94
2023/03/13 04:42:48;;;;;;;11.85;7.30;;;;;;;6.88;49.75;99285.03;4273038;33;34165;-89
2023/03/13 04:45:15;;;;;;;11.43;7.00;;;;;;;7.02;49.17;99285.44;4285398;33;34297;-91
2023/03/13 04:47:45;;;;;;;10.82;7.45;;;;;;;6.87;49.62;99279.84;4282890;33;32758;-94
2023/03/13 04:50:15;;;;;;;13.07;7.28;;;;;;;6.73;49.79;99280.28;4275986;33;31625;-94
2023/03/13 04:52:45;;;;;;;10.95;7.10;;;;;;;6.92;49.73;99268.81;4284213;33;33491;-95
2023/03/13 04:55:16;;;;;;;13.07;7.80;;;;;;;7.03;49.16;99272.59;4276577;33;33192;-93
2023/03/13 04:57:44;;;;;;;11.95;7.32;;;;;;;6.73;48.21;99279.44;4257056;33;33447;-89
2023/03/13 05:00:12;;;;;;;12.23;8.23;;;;;;;6.77;48.52;99289.00;4283882;33;33162;-95
2023/03/13 05:02:41;;;;;;;13.85;8.48;;;;;;;6.56;48.26;99294.38;4262556;33;33964;-90
2023/03/13 05:05:10;;;;;;;13.60;8.80;;;;;;;6.22;49.07;99298.47;4275720;33;33467;-93
2023/03/13 05:07:41;;;;;;;12.20;7.90;;;;;;;6.40;48.50;99305.88;4274452;33;32804;-91
2023/03/13 05:10:09;;;;;;;15.60;9.30;;;;;;;6.82;48.65;99303.78;4259172;33;32700;-90
2023/03/13 05:12:38;;;;;;;14.30;8.68;;;;;;;6.86;48.01;99304.75;4293523;33;33944;-93
2023/03/13 05:15:07;;;;;;;15.60;8.70;;;;;;;6.60;48.01;99300.50;4288679;33;33090;-96
2023/03/13 05:17:35;;;;;;;15.15;9.82;;;;;;;6.95;47.87;99293.81;4277298;33;33557;-91
2023/03/13 05:20:05;;;;;;;11.23;7.65;;;;;;;7.04;46.96;99296.66;4262385;33;33245;-91
2023/03/13 05:22:33;;;;;;;12.93;8.60;;;;;;;6.70;47.85;99303.38;4287316;33;33793;-92
2023/03/13 05:25:04;;;;;;;15.00;8.40;;;;;;;6.48;47.77;99304.44;4273944;33;32542;-92
2023/03/13 05:27:32;;;;;;;14.35;8.20;;;;;;;6.64;47.11;99305.78;4289071;33;34844;-91
2023/03/13 05:30:00;;;;;;;16.65;7.87;;;;;;;6.47;47.47;99307.84;4277370;33;34596;-92
2023/03/13 05:32:29;;;;;;;12.77;7.20;;;;;;;6.86;46.61;99311.56;4275361;33;34198;-92
2023/03/13 05:34:57;;;;;;;16.40;9.10;;;;;;;6.59;47.32;99325.38;4285819;33;33203;-91
2023/03/13 05:37:26;;;;;;;14.07;8.95;;;;;;;6.56;47.37;99315.87;4264535;33;33318;-91
2023/03/13 05:39:54;;;;;;;13.93;8.75;;;;;;;6.78;47.06;99314.81;4263618;33;32612;-88
2023/03/13 05:42:22;;;;;;;13.02;8.45;;;;;;;6.89;46.43;99314.25;4279762;33;33123;-88
2023/03/13 05:44:50;;;;;;;19.30;10.13;;;;;;;6.78;47.06;99314.81;4273392;33;33197;-91
2023/03/13 05:47:18;;;;;;;12.95;8.20;;;;;;;6.38;47.81;99317.00;4283690;33;33189;-89
2023/03/13 05:49:45;;;;;;;13.85;8.75;;;;;;;6.39;47.32;99321.31;4278998;33;32337;-91
2023/03/13 05:52:13;;;;;;;12.57;7.95;;;;;;;6.35;48.02;99315.19;4286796;33;33591;-94
2023/03/13 05:54:40;;;;;;;14.77;8.13;;;;;;;6.67;46.94;99320.47;4286233;33;32872;-88
2023/03/13 05:57:08;;;;;;;12.68;7.93;;;;;;;6.36;47.45;99326.34;4274122;33;33304;-92
2023/03/13 05:59:36;;;;;;;12.55;8.23;;;;;;;6.06;47.89;99328.00;4274852;33;34092;-91
2023/03/13 06:02:04;;;;;;;11.57;7.20;;;;;;;6.27;47.52;99320.09;4274846;33;33949;-94
2023/03/13 06:04:33;;;;;;;11.63;6.95;;;;;;;6.43;47.17;99324.03;4275780;33;33886;-88
2023/03/13 06:07:01;;;;;;;13.10;7.40;;;;;;;6.37;47.45;99328.13;4282610;33;33988;-87
2023/03/13 06:09:28;;;;;;;14.20;7.20;;;;;;;6.30;47.17;99317.63;4274060;33;32016;-88
2023/03/13 06:11:56;;;;;;;11.90;7.55;;;;;;;5.83;48.35;99318.56;4276424;33;32618;-95
2023/03/13 06:14:24;;;;;;;11.95;7.97;;;;;;;6.18;47.58;99317.22;4284153;33;32930;-89
2023/03/13 06:16:55;;;;;;;11.70;7.97;;;;;;;6.31;47.14;99310.75;4263675;33;33516;-89
2023/03/13 06:19:24;;;;;;;11.85;7.90;;;;;;;6.12;47.54;99305.84;4293440;33;34471;-89
2023/03/13 06:21:51;;;;;;;13.70;8.00;;;;;;;6.31;46.95;99309.06;4279290;33;33787;-89
2023/03/13 06:24:18;;;;;;;17.20;9.27;;;;;;;6.61;46.46;99305.69;4273711;33;36544;-89
2023/03/13 06:26:50;;;;;;;10.75;7.62;;;;;;;6.40;46.35;99303.31;4296400;33;34727;-94
2023/03/13 06:29:17;;;;;;;14.87;8.18;;;;;;;6.12;47.28;99311.00;4277881;33;34178;-96
2023/03/13 06:31:45;;;;;;;13.57;8.10;;;;;;;6.46;46.80;99305.22;4272544;33;33893;-95
2023/03/13 06:34:13;;;;;;;13.20;8.15;;;;;;;6.71;46.02;99305.16;4277507;33;34937;-89
2023/03/13 06:36:40;;;;;;;13.52;7.03;;;;;;;6.75;45.84;99294.13;4290509;33;33774;-89
2023/03/13 06:39:08;;;;;;;12.52;7.78;;;;;;;6.40;46.09;99294.72;4281074;33;33204;-91
2023/03/13 06:41:36;;;;;;;12.48;7.60;;;;;;;6.30;46.53;99304.75;4278602;33;33287;-87
2023/03/13 06:44:04;;;;;;;10.75;7.57;;;;;;;6.48;46.60;99303.59;4273261;33;34302;-90
2023/03/13 06:46:31;;;;;;;14.38;7.53;;;;;;;6.70;45.99;99297.38;4272006;33;33691;-87
2023/03/13 06:49:03;;;;;;;12.88;8.30;;;;;;;6.75;45.12;99312.16;4281246;33;33933;-92
2023/03/13 06:51:31;;;;;;;10.82;7.22;;;;;;;6.90;45.54;99316.03;4279391;33;33863;-91
2023/03/13 06:53:58;;;;;;;12.18;7.45;;;;;;;6.87;44.90;99310.78;4280075;33;34164;-91
2023/03/13 06:56:26;;;;;;;11.10;6.30;;;;;;;6.81;44.77;99311.44;4276259;33;33732;-92
2023/03/13 06:58:53;;;;;;;10.90;6.28;;;;;;;7.06;44.11;99313.94;4282703;33;32942;-93
2023/03/13 07:01:21;;;;;;;9.77;6.97;;;;;;;7.21;43.90;99307.47;4289208;33;34692;-92
2023/03/13 07:03:48;;;;;;;13.02;6.80;;;;;;;7.28;44.10;99310.25;4283391;33;33959;-93
2023/03/13 07:06:17;;;;;;;10.27;6.10;;;;;;;7.23;44.31;99304.06;4287427;33;33913;-91
2023/03/13 07:08:45;;;;;;;12.63;6.47;;;;;;;7.48;43.53;99299.63;4286167;33;33749;-92
2023/03/13 07:11:13;;;;;;;11.23;6.22;;;;;;;7.83;42.56;99294.50;4286528;33;34315;-92
2023/03/13 07:13:40;;;;;;;11.05;6.78;;;;;;;7.51;43.39;99304.84;4276785;33;35123;-93
2023/03/13 07:16:10;;;;;;;13.15;6.57;;;;;;;7.18;44.30;99305.66;4295533;33;34048;-94
2023/03/13 07:18:43;;;;;;;9.80;6.18;;;;;;;7.70;43.64;99303.66;4271866;33;33276;-90
2023/03/13 07:21:11;;;;;;;9.95;6.78;;;;;;;7.38;43.88;99295.91;4273043;33;34014;-91
2023/03/13 07:23:39;;;;;;;11.30;6.60;;;;;;;7.42;43.96;99295.16;4288914;33;34036;-86
2023/03/13 07:26:12;;;;;;;12.48;6.70;;;;;;;7.15;44.40;99295.25;4271867;33;34720;-87
2023/03/13 07:28:40;;;;;;;9.70;6.72;;;;;;;7.43;43.78;99301.19;4272004;33;34556;-92
2023/03/13 07:31:13;;;;;;;13.65;6.87;;;;;;;7.38;44.35;99303.62;4272017;33;34179;-92
2023/03/13 07:33:43;;;;;;;11.65;6.10;;;;;;;7.50;43.66;99306.56;4272039;33;34224;-92
2023/03/13 07:36:12;;;;;;;13.62;6.45;;;;;;;7.69;43.09;99297.63;4272844;33;34517;-91
2023/03/13 07:38:41;;;;;;;9.60;6.37;;;;;;;7.67;43.11;99299.28;4274253;33;33740;-93
2023/03/13 07:41:11;;;;;;;10.07;5.93;;;;;;;7.78;42.61;99297.84;4299985;33;33982;-92
2023/03/13 07:43:38;;;;;;;10.98;5.57;;;;;;;7.73;42.69;99289.12;4276516;33;34587;-93
2023/03/13 07:46:09;;;;;;;10.30;6.05;;;;;;;8.03;42.13;99288.12;4288734;33;33942;-91
2023/03/13 07:48:40;;;;;;;8.88;5.62;;;;;;;7.74;42.45;99285.69;4288685;33;33201;-91
2023/03/13 07:51:20;;;;;;;11.85;6.05;;;;;;;7.68;42.85;99275.19;4288700;33;33768;-91
2023/03/13 07:54:03;;;;;;;11.68;6.45;;;;;;;7.91;42.13;99275.78;4275249;33;34016;-92
2023/03/13 07:56:30;;;;;;;9.57;5.45;;;;;;;7.91;42.39;99274.91;4273672;33;34945;-92
2023/03/13 07:58:58;;;;;;;11.00;5.55;;;;;;;8.29;41.54;99268.09;4286820;33;33650;-92
2023/03/13 08:01:26;;;;;;;9.27;4.93;;;;;;;8.62;40.64;99262.84;4286650;33;34088;-92
2023/03/13 08:04:00;;;;;;;9.38;5.95;;;;;;;8.36;41.35;99266.53;4274311;33;33770;-91
2023/03/13 08:06:29;;;;;;;7.28;4.68;;;;;;;8.40;40.70;99263.22;4262205;33;32210;-92
2023/03/13 08:09:00;;;;;;;9.57;4.60;;;;;;;8.62;39.79;99257.69;4274277;33;34174;-91
2023/03/13 08:11:28;;;;;;;8.90;4.82;;;;;;;8.88;39.78;99250.50;4286940;33;34072;-93
2023/03/13 08:13:56;;;;;;;8.52;4.68;;;;;;;9.04;39.09;99246.50;4262080;33;33473;-93
2023/03/13 08:16:30;;;;;;;9.07;5.00;;;;;;;9.25;39.14;99233.13;4273988;33;33635;-92
2023/03/13 08:37:29;;;;;;;9.18;4.90;;;;;;;10.23;36.48;99214.09;4430638;27;20095;-84
2023/03/13 08:39:57;;;;;;;8.30;4.62;;;;;;;10.26;36.04;99216.72;4301305;33;33899;-92
2023/03/13 08:42:24;;;;;;;9.65;5.18;;;;;;;10.14;35.85;99207.03;4289565;33;33275;-84
2023/03/13 08:44:52;;;;;;;7.85;4.60;;;;;;;9.94;36.95;99211.03;4290294;33;32438;-92
2023/03/13 08:47:20;;;;;;;9.13;4.85;;;;;;;10.38;35.79;99209.16;4303370;33;33803;-87
2023/03/13 08:49:47;;;;;;;8.13;4.87;;;;;;;10.63;35.80;99202.56;4303280;33;33989;-86
2023/03/13 08:52:14;;;;;;;9.65;5.47;;;;;;;10.31;35.68;99199.56;4303479;33;33675;-85
2023/03/13 08:54:42;;;;;;;9.48;4.47;;;;;;;10.19;35.71;99200.22;4303659;33;34032;-84
2023/03/13 08:57:10;;;;;;;8.30;4.75;;;;;;;10.58;35.07;99191.28;4303281;33;35114;-87
2023/03/13 08:59:37;;;;;;;9.20;4.62;;;;;;;10.58;35.05;99196.47;4303469;33;34514;-91
2023/03/13 09:02:05;;;;;;;9.18;4.18;;;;;;;10.71;34.86;99193.16;4303534;33;33454;-94
2023/03/13 09:04:32;;;;;;;9.15;4.57;;;;;;;11.00;34.04;99190.06;4290055;33;33965;-84
2023/03/13 09:07:00;;;;;;;9.73;5.28;;;;;;;10.78;34.18;99193.25;4289951;33;32977;-85
2023/03/13 09:09:27;;;;;;;8.70;4.85;;;;;;;10.70;35.13;99188.84;4303330;33;34177;-91
2023/03/13 09:11:55;;;;;;;9.00;4.55;;;;;;;10.83;35.17;99181.19;4303213;33;34016;-91
2023/03/13 09:14:22;;;;;;;7.00;4.22;;;;;;;10.98;34.74;99188.28;4303488;33;33593;-89
2023/03/13 09:16:50;;;;;;;7.93;4.70;;;;;;;10.71;33.97;99180.19;4303533;33;33723;-89
2023/03/13 09:19:17;;;;;;;8.65;5.05;;;;;;;10.74;34.17;99181.09;4303076;33;33444;-84
2023/03/13 09:21:45;;;;;;;6.72;4.10;;;;;;;11.06;34.20;99181.47;4303526;33;33527;-85
2023/03/13 09:24:13;;;;;;;9.25;4.10;;;;;;;10.86;34.50;99182.09;4303417;33;34003;-85
2023/03/13 09:26:40;;;;;;;8.70;4.60;;;;;;;11.15;34.14;99172.06;4303056;33;34603;-86
2023/03/13 09:29:21;;;;;;;8.27;4.82;;;;;;;11.35;34.15;99173.97;4289825;33;32715;-83
2023/03/13 09:31:49;;;;;;;11.80;4.80;;;;;;;11.17;34.34;99162.59;4302994;33;33594;-89
2023/03/13 09:34:16;;;;;;;11.50;5.82;;;;;;;11.15;34.31;99169.47;4303241;33;34292;-90
2023/03/13 09:36:44;;;;;;;8.82;4.75;;;;;;;11.34;34.11;99162.72;4303002;33;34147;-88
2023/03/13 09:39:11;;;;;;;8.20;4.87;;;;;;;11.36;34.91;99173.13;4289794;33;33725;-84
2023/03/13 09:41:54;;;;;;;9.05;4.55;;;;;;;11.72;34.24;99166.53;4303117;33;33803;-90
2023/03/13 09:44:28;;;;;;;7.25;4.30;;;;;;;11.95;33.19;99144.22;4290075;33;33984;-88
2023/03/13 09:47:00;;;;;;;8.65;4.30;;;;;;;12.30;32.83;99151.38;4278139;33;33642;-93
2023/03/13 09:49:36;;;;;;;7.72;4.53;;;;;;;12.10;32.97;99146.91;4289831;33;33496;-91
2023/03/13 09:52:11;;;;;;;8.40;3.90;;;;;;;12.36;33.28;99161.81;4303091;33;33047;-93
2023/03/13 09:54:56;;;;;;;12.02;4.00;;;;;;;12.30;32.14;99149.63;4289398;33;33801;-84
2023/03/13 09:57:31;;;;;;;8.45;3.80;;;;;;;12.57;32.18;99150.62;4290069;33;34609;-84
2023/03/13 10:00:07;;;;;;;6.72;3.90;;;;;;;12.82;32.17;99139.47;4278103;33;34320;-84
2023/03/13 10:02:37;;;;;;;8.32;4.18;;;;;;;12.94;31.47;99138.63;4290508;33;33065;-85
2023/03/13 10:05:15;;;;;;;8.98;4.18;;;;;;;12.96;31.10;99131.72;4289906;33;32557;-93
2023/03/13 10:07:43;;;;;;;8.75;4.55;;;;;;;12.54;31.83;99125.50;4289886;33;33733;-85
2023/03/13 10:10:17;;;;;;;8.93;4.20;;;;;;;12.98;31.00;99126.50;4278867;33;33539;-92
2023/03/13 10:12:47;;;;;;;9.43;4.10;;;;;;;13.00;31.72;99119.56;4278179;33;33139;-92
2023/03/13 10:15:20;;;;;;;6.43;3.70;;;;;;;12.76;31.25;99110.81;4302782;33;34265;-91
2023/03/13 10:17:48;;;;;;;11.27;4.95;;;;;;;12.96;31.11;99110.88;4289742;33;34555;-95
2023/03/13 10:20:28;;;;;;;6.57;3.90;;;;;;;12.96;30.89;99110.03;4289235;33;33408;-84
2023/03/13 10:23:01;;;;;;;7.60;3.80;;;;;;;13.14;30.84;99105.72;4302881;33;33475;-90
2023/03/13 10:25:33;;;;;;;7.80;4.30;;;;;;;13.43;30.79;99119.66;4302956;33;34666;-90
2023/03/13 10:28:01;;;;;;;7.62;4.15;;;;;;;13.76;30.76;99111.84;4289865;33;34919;-92
2023/03/13 10:30:31;;;;;;;6.65;4.00;;;;;;;13.37;30.48;99097.06;4277486;33;34007;-84
2023/03/13 10:33:28;;;;;;;9.70;6.37;;;;;;;13.29;30.96;99106.63;4277396;33;32596;-93
2023/03/13 10:36:06;;;;;;;6.55;3.92;;;;;;;13.39;30.64;99095.34;4280686;33;33826;-85
2023/03/13 10:38:45;;;;;;;7.50;3.90;;;;;;;13.62;30.96;99095.34;4302532;33;34092;-84
2023/03/13 10:41:26;;;;;;;8.38;4.03;;;;;;;13.80;30.92;99091.84;4302681;33;33807;-85
2023/03/13 10:43:58;;;;;;;8.75;4.37;;;;;;;14.41;30.61;99099.50;4277429;33;32788;-84
2023/03/13 10:46:34;;;;;;;7.57;4.03;;;;;;;14.62;30.42;99097.72;4303368;33;33801;-84
2023/03/13 10:49:04;;;;;;;7.57;3.75;;;;;;;14.88;29.56;99093.22;4289491;33;34191;-87
2023/03/13 10:51:37;;;;;;;7.80;4.50;;;;;;;14.44;29.67;99085.59;4289313;33;33868;-91
2023/03/13 10:54:23;;;;;;;7.75;4.00;;;;;;;14.58;30.06;99081.19;4277336;33;32660;-92
2023/03/13 10:56:54;;;;;;;6.75;4.10;;;;;;;14.48;29.71;99080.34;4302761;33;33792;-92
2023/03/13 10:59:24;;;;;;;8.10;4.12;;;;;;;14.47;29.78;99080.34;4289695;33;34737;-83
2023/03/13 11:01:59;;;;;;;10.23;4.75;;;;;;;14.68;29.72;99072.47;4289780;33;33676;-91
2023/03/13 11:04:29;;;;;;;8.27;4.77;;;;;;;14.66;29.72;99073.34;4302605;33;33289;-84
2023/03/13 11:07:04;;;;;;;8.63;4.07;;;;;;;14.82;29.78;99065.44;4289561;33;34261;-84
2023/03/13 11:09:32;;;;;;;7.65;4.45;;;;;;;14.51;30.24;99064.72;4289741;33;33806;-85
2023/03/13 11:12:13;;;;;;;9.30;4.45;;;;;;;15.11;29.74;99050.44;4277790;33;32756;-84
2023/03/13 11:14:41;;;;;;;10.43;4.45;;;;;;;15.13;29.39;99053.91;4277506;33;34193;-90
2023/03/13 11:17:18;;;;;;;7.35;4.93;;;;;;;14.85;30.07;99041.06;4277298;33;32654;-86
2023/03/13 11:19:58;;;;;;;10.32;5.70;;;;;;;14.93;29.88;99044.47;4289448;33;33985;-93
2023/03/13 11:23:02;;;;;;;12.75;4.53;;;;;;;15.27;29.36;99037.25;4302170;33;33931;-84
2023/03/13 11:25:45;;;;;;;9.05;4.90;;;;;;;15.25;29.40;99044.22;4302691;33;33551;-94
2023/03/13 11:28:27;;;;;;;8.40;4.28;;;;;;;15.27;29.91;99028.56;4302393;33;34020;-93
2023/03/13 11:31:06;;;;;;;7.87;4.97;;;;;;;15.58;29.39;99024.78;4290923;33;34272;-85
2023/03/13 11:33:38;;;;;;;7.78;5.00;;;;;;;15.61;29.49;99025.63;4305034;33;33894;-93
2023/03/13 11:36:39;;;;;;;8.55;4.97;;;;;;;15.38;29.76;99028.44;4291016;33;33471;-89
2023/03/13 11:39:32;;;;;;;8.85;5.07;;;;;;;15.54;29.70;99025.69;4304960;33;34104;-93
2023/03/13 11:42:12;;;;;;;14.63;5.45;;;;;;;15.32;30.07;99013.72;4291024;33;32683;-84
2023/03/13 11:45:21;;;;;;;12.02;5.05;;;;;;;15.54;29.95;99014.38;4304560;33;34949;-84
2023/03/13 11:47:59;;;;;;;10.10;5.37;;;;;;;15.55;30.59;99016.09;4291247;33;32609;-84
2023/03/13 11:50:59;;;;;;;9.73;5.20;;;;;;;15.75;30.52;99015.94;4291416;33;33179;-84
2023/03/13 11:53:30;;;;;;;10.60;5.32;;;;;;;15.80;30.50;99001.09;4293674;33;33634;-91
2023/03/13 11:56:20;;;;;;;10.20;5.28;;;;;;;15.33;30.56;98990.16;4277116;33;32580;-85
2023/03/13 11:59:15;;;;;;;12.05;4.72;;;;;;;15.46;31.04;98990.09;4289741;33;33474;-94
2023/03/13 12:01:48;;;;;;;11.25;4.78;;;;;;;15.50;30.18;98982.19;4302001;33;33671;-84
2023/03/13 12:04:35;;;;;;;8.45;4.57;;;;;;;15.96;30.15;98971.25;4288950;33;34636;-84
2023/03/13 12:07:14;;;;;;;8.18;4.28;;;;;;;15.87;29.97;98970.47;4289024;33;34579;-85
2023/03/13 12:09:48;;;;;;;10.52;4.45;;;;;;;15.84;30.30;98975.78;4277113;33;33637;-84